• Join FlightAware (Why Join?)
  • Login
  • US Flag 
04:17PM EDT


 

Airport Tracker/Info


-or-


 

Live Flight TrackerFlight Track Log ✈ RPA3498 ✈ 22-Jun-2013 ✈ KDCA - KPWM

Flight Track Log - Related Links

Times and Time Zones

All times are in EDT time to prevent confusion due to time zone crossing. See the RPA3498 flight status page for this flight to view local times or setup timezone preferences in your user account.

Time Position Orientation Groundspeed Altitude Reporting Facility
EDT Latitude Longitude Course Direction KTS MPH feet Rate Location/Type
08:59PM 38.8167 -77.0333 38° Northeast 147 169 1,400  Level Potomac TRACON
09:00PM 38.7667 -77.0333 180° South 212 244 3,200 2,160 Climbing Potomac TRACON
09:01PM 38.7333 -76.9667 123° Southeast 283 326 5,800 2,640 Climbing Potomac TRACON
09:02PM 39.0168 -76.5663 67° East  Level FlightAware Approximate
09:03PM 39.0610 -76.4476 63° Northeast  Level FlightAware Approximate
09:04PM 39.1101 -76.3319 61° Northeast  Level FlightAware Approximate
09:04PM 38.8861 -76.8344 34° Northeast 317 365 12,000  Level Washington Center
09:05PM 39.1485 -76.2181 38° Northeast  Level FlightAware Approximate
09:05PM 38.9578 -76.7661 37° Northeast 317 365 14,600  Level Washington Center
09:06PM 38.9983 -76.6519 65° Northeast 318 366 16,800 1,980 Climbing Washington Center
09:07PM 39.0389 -76.5375 65° Northeast 329 379 18,600 1,800 Climbing Washington Center
09:08PM 39.0814 -76.4206 65° Northeast 347 399 20,500 1,560 Climbing Washington Center
09:09PM 39.1153 -76.3192 67° East 361 415 21,800 1,560 Climbing Washington Center
09:10PM 39.1622 -76.1564 70° East 378 435 23,700 1,620 Climbing Washington Center
09:11PM 39.1772 -76.0119 82° East 393 452 25,100 1,260 Climbing Washington Center
09:12PM 39.2069 -75.8675 75° East 411 473 26,300 1,320 Climbing Washington Center
09:13PM 39.2864 -75.7553 48° Northeast 404 465 27,800 1,320 Climbing Washington Center
09:14PM 39.3739 -75.6481 43° Northeast 414 476 28,900 600 Climbing Washington Center
09:15PM 39.4594 -75.5378 45° Northeast 421 484 29,000  Climbing Washington Center
09:18PM 39.5710 -75.3854 46° Northeast  Level FlightAware Approximate
09:22PM 40.0453 -74.7214 47° Northeast 426 490 29,000  Level New York Center
09:24PM 40.1657 -74.5846 41° Northeast  Level Estimated
09:25PM 40.0485 -74.6955 47° Northeast  Level FlightAware Approximate
09:26PM 40.1184 -74.5978 47° Northeast  Level FlightAware Approximate
09:27PM 40.1882 -74.4999 47° Northeast  Level FlightAware Approximate
09:27PM 40.4403 -74.2014 41° Northeast 410 472 27,000  Level Boston Center
09:28PM 40.5169 -74.0889 48° Northeast 423 487 27,000  Level Boston Center
09:29PM 40.5933 -73.9789 48° Northeast 412 474 27,000  Level Boston Center
09:30PM 40.6722 -73.8631 48° Northeast 412 474 27,000  Level Boston Center
09:31PM 40.7000 -73.9695 41° Northeast  Level Estimated
09:31PM 40.7506 -73.7497 48° Northeast 412 474 27,000  Level Boston Center
09:32PM 40.7760 -73.8808 41° Northeast  Level Estimated
09:32PM 40.8100 -73.6494 52° Northeast 417 480 27,000  Level Boston Center
09:33PM 40.9031 -73.5111 48° Northeast 417 480 27,000  Level Boston Center
09:34PM 40.9814 -73.3942 48° Northeast 417 480 27,000  Level Boston Center
09:35PM 41.0531 -73.2933 47° Northeast 417 480 27,000  Level Boston Center
09:36PM 41.1267 -73.1758 50° Northeast 412 474 27,000  Level Boston Center
09:37PM 41.1983 -73.0525 52° Northeast 412 474 27,000  Level Boston Center
09:38PM 41.2697 -72.9289 52° Northeast 417 480 27,000  Level Boston Center
09:39PM 41.3411 -72.7994 54° Northeast 422 486 27,000  Level Boston Center
09:40PM 41.4103 -72.6781 53° Northeast 422 486 27,000  Level Boston Center
09:41PM 41.4792 -72.5508 54° Northeast 422 486 27,000  Level Boston Center
09:42PM 41.5458 -72.4289 54° Northeast 417 480 27,000  Level Boston Center
09:43PM 41.6147 -72.3042 54° Northeast 417 480 27,000  Level Boston Center
09:44PM 41.6831 -72.1789 54° Northeast 417 480 27,000  Level Boston Center
09:45PM 41.7558 -72.0506 53° Northeast 417 480 27,000  Level Boston Center
09:46PM 41.8219 -71.9247 55° Northeast 417 480 27,000  Level Boston Center
09:47PM 41.8983 -71.8042 50° Northeast 417 480 27,000  Level Boston Center
09:48PM 41.9747 -71.6917 48° Northeast 417 480 27,000  Level Boston Center
09:49PM 42.0553 -71.5706 48° Northeast 417 480 27,000 -300 Level Boston Center
09:50PM 42.1481 -71.4433 45° Northeast 417 480 26,500 -660 Descending Boston Center
09:51PM 42.2117 -71.3497 47° Northeast 417 480 25,700 -1,020 Descending Boston Center
09:52PM 42.3000 -71.2164 48° Northeast 412 474 24,500 -900 Descending Boston Center
09:53PM 42.3758 -71.1050 47° Northeast 405 466 24,000 -300 Descending Boston Center
09:54PM 42.4494 -70.9911 49° Northeast 399 459 24,000  Level Boston Center
09:55PM 42.5231 -70.8767 49° Northeast 399 459 24,000  Level Boston Center
09:56PM 42.5861 -70.7764 49° Northeast 392 451 24,000 -1,200 Level Boston Center
09:57PM 42.6639 -70.6669 46° Northeast 392 451 21,700 -2,100 Descending Boston Center
09:58PM 42.7522 -70.5908 32° Northeast 386 444 19,800 -1,980 Descending Boston Center
09:59PM 42.8472 -70.5342 24° Northeast 349 402 17,800 -1,980 Descending Boston Center
10:00PM 42.9275 -70.4864 24° Northeast 344 396 15,900 -1,920 Descending Boston Center
10:01PM 43.0203 -70.4236 26° Northeast 331 381 14,000 -1,800 Descending Boston Center
10:02PM 43.0922 -70.3644 31° Northeast 331 381 12,400 -1,500 Descending Boston Center
10:03PM 43.1764 -70.2906 33° Northeast 326 375 11,000 -1,200 Descending Boston Center
10:04PM 43.2481 -70.2281 32° Northeast 311 358 10,000 -1,380 Descending Boston Center
10:05PM 43.3136 -70.1714 32° Northeast 284 327 8,300 -1,800 Descending Boston Center
10:06PM 43.3883 -70.1572 North 271 312 6,500 -1,860 Descending Boston Center
10:07PM 43.4653 -70.1458 North 266 306 4,600 -1,740 Descending Boston Center
10:08PM 43.5400 -70.1344 North 271 312 3,100 -1,200 Descending Boston Center
10:09PM 43.6111 -70.1375 358° North 265 305 2,300 -720 Descending Boston Center
10:10PM 43.6411 -70.1908 308° West 197 227 1,700 -600 Descending Boston Center